createdAt,value
2018-03-21T00:01:32.896Z,0.30
2018-03-21T00:02:32.798Z,0.27
2018-03-21T00:04:26.045Z,0.16
2018-03-21T00:05:25.978Z,0.07
2018-03-21T00:07:19.254Z,0.03
2018-03-21T00:08:19.156Z,-0.01
2018-03-21T00:10:12.401Z,-0.11
2018-03-21T00:11:12.332Z,-0.09
2018-03-21T00:13:05.609Z,-0.08
2018-03-21T00:14:05.511Z,-0.11
2018-03-21T00:15:58.758Z,-0.09
2018-03-21T00:16:58.688Z,-0.11
2018-03-21T00:18:51.968Z,-0.01
2018-03-21T00:19:51.868Z,-0.06
2018-03-21T00:21:45.113Z,-0.13
2018-03-21T00:22:45.046Z,-0.22
2018-03-21T00:24:38.322Z,-0.34
2018-03-21T00:25:38.222Z,-0.23
2018-03-21T00:27:31.468Z,-0.41
2018-03-21T00:28:31.402Z,-0.39
2018-03-21T00:30:24.688Z,-0.44
2018-03-21T00:31:24.587Z,-0.50
2018-03-21T00:33:17.833Z,-0.51
2018-03-21T00:34:17.764Z,-0.65
2018-03-21T00:36:11.040Z,-0.89
2018-03-21T00:37:10.941Z,-0.91
2018-03-21T00:39:04.185Z,-1.17
2018-03-21T00:40:04.116Z,-1.18
2018-03-21T00:41:57.392Z,-1.39
2018-03-21T00:42:57.293Z,-1.36
2018-03-21T00:44:50.543Z,-1.53
2018-03-21T00:45:50.471Z,-1.54
2018-03-21T00:47:43.748Z,-1.53
2018-03-21T00:48:43.647Z,-1.35
2018-03-21T00:50:36.893Z,-1.24
2018-03-21T00:51:36.824Z,-1.28
2018-03-21T00:53:30.102Z,-1.25
2018-03-21T00:54:30.000Z,-1.33
2018-03-21T00:56:23.245Z,-1.45
2018-03-21T00:57:23.178Z,-1.42
2018-03-21T00:59:16.452Z,-1.63
2018-03-21T01:00:16.353Z,-1.64
2018-03-21T01:02:09.604Z,-1.82
2018-03-21T01:03:09.533Z,-1.88
2018-03-21T01:05:02.804Z,-2.03
2018-03-21T01:06:02.710Z,-2.17
2018-03-21T01:07:55.948Z,-2.24
2018-03-21T01:08:55.877Z,-2.36
2018-03-21T01:10:49.153Z,-2.50
2018-03-21T01:11:49.053Z,-2.47
2018-03-21T01:13:42.296Z,-2.54
2018-03-21T01:14:42.227Z,-2.56
2018-03-21T01:16:35.500Z,-2.64
2018-03-21T01:17:35.402Z,-2.76
2018-03-21T01:19:28.644Z,-2.66
2018-03-21T01:20:28.574Z,-2.81
2018-03-21T01:22:21.852Z,-2.75
2018-03-21T01:23:21.750Z,-2.75
2018-03-21T01:25:14.994Z,-2.72
2018-03-21T01:26:14.924Z,-2.71
2018-03-21T01:28:08.200Z,-2.66
2018-03-21T01:29:08.102Z,-2.60
2018-03-21T01:31:01.340Z,-2.45
2018-03-21T01:32:01.272Z,-2.54
2018-03-21T01:33:54.548Z,-2.58
2018-03-21T01:34:54.446Z,-2.63
2018-03-21T01:36:47.689Z,-2.74
2018-03-21T01:37:47.619Z,-2.82
2018-03-21T01:39:40.893Z,-2.79
2018-03-21T01:40:40.802Z,-2.92
2018-03-21T01:42:34.037Z,-2.92
2018-03-21T01:43:33.969Z,-2.64
2018-03-21T01:45:27.241Z,-2.56
2018-03-21T01:46:27.140Z,-2.64
2018-03-21T01:48:20.383Z,-2.75
2018-03-21T01:49:20.313Z,-2.75
2018-03-21T01:51:13.584Z,-2.75
2018-03-21T01:52:13.484Z,-2.82
2018-03-21T01:54:06.727Z,-2.72
2018-03-21T01:55:06.657Z,-2.72
2018-03-21T01:56:59.929Z,-2.78
2018-03-21T01:57:59.826Z,-2.75
2018-03-21T01:59:53.070Z,-2.58
2018-03-21T02:00:53.001Z,-2.75
2018-03-21T02:02:46.281Z,-2.97
2018-03-21T02:03:46.174Z,-2.97
2018-03-21T02:05:39.424Z,-2.99
2018-03-21T02:06:39.352Z,-3.04
2018-03-21T02:08:32.623Z,-2.85
2018-03-21T02:09:32.523Z,-2.74
2018-03-21T02:11:25.774Z,-2.60
2018-03-21T02:12:25.694Z,-2.81
2018-03-21T02:14:18.971Z,-3.05
2018-03-21T02:15:18.871Z,-3.23
2018-03-21T02:17:12.110Z,-3.33
2018-03-21T02:18:12.046Z,-3.32
2018-03-21T02:20:05.320Z,-3.15
2018-03-21T02:21:05.220Z,-3.13
2018-03-21T02:22:58.458Z,-3.22
2018-03-21T02:23:58.387Z,-3.23
2018-03-21T02:25:51.664Z,-3.44
2018-03-21T02:26:51.561Z,-3.44
2018-03-21T02:28:44.802Z,-3.61
2018-03-21T02:29:44.734Z,-3.54
2018-03-21T02:31:38.006Z,-3.62
2018-03-21T02:32:37.904Z,-3.71
2018-03-21T02:34:31.146Z,-3.94
2018-03-21T02:35:31.075Z,-4.01
2018-03-21T02:37:24.349Z,-3.84
2018-03-21T02:38:24.250Z,-3.84
2018-03-21T02:40:17.494Z,-3.57
2018-03-21T02:41:17.424Z,-3.39
2018-03-21T02:43:10.697Z,-3.36
2018-03-21T02:44:10.608Z,-3.41
2018-03-21T02:46:03.843Z,-3.38
2018-03-21T02:47:03.776Z,-3.54
2018-03-21T02:48:57.057Z,-3.70
2018-03-21T02:49:56.949Z,-3.72
2018-03-21T02:51:50.188Z,-3.93
2018-03-21T02:52:50.119Z,-3.98
2018-03-21T02:54:43.396Z,-4.11
2018-03-21T02:55:43.295Z,-4.09
2018-03-21T02:57:36.536Z,-4.22
2018-03-21T02:58:36.465Z,-4.20
2018-03-21T03:00:29.736Z,-4.28
2018-03-21T03:01:29.635Z,-4.20
2018-03-21T03:03:22.879Z,-4.09
2018-03-21T03:04:22.806Z,-4.19
2018-03-21T03:06:16.079Z,-4.28
2018-03-21T03:07:15.978Z,-4.33
2018-03-21T03:09:09.220Z,-4.46
2018-03-21T03:10:09.155Z,-4.55
2018-03-21T03:12:02.424Z,-4.50
2018-03-21T03:13:02.326Z,-4.55
2018-03-21T03:14:55.562Z,-4.58
2018-03-21T03:15:55.492Z,-4.57
2018-03-21T03:17:48.763Z,-4.58
2018-03-21T03:18:48.661Z,-4.62
2018-03-21T03:20:41.906Z,-4.76
2018-03-21T03:21:41.831Z,-4.66
2018-03-21T03:23:35.104Z,-4.68
2018-03-21T03:24:35.003Z,-4.64
2018-03-21T03:26:28.243Z,-4.71
2018-03-21T03:27:28.176Z,-4.73
2018-03-21T03:29:21.446Z,-4.61
2018-03-21T03:30:21.353Z,-4.71
2018-03-21T03:32:14.585Z,-4.66
2018-03-21T03:33:14.523Z,-4.58
2018-03-21T03:35:07.785Z,-4.68
2018-03-21T03:36:07.687Z,-4.71
2018-03-21T03:38:00.927Z,-4.87
2018-03-21T03:39:00.854Z,-4.93
2018-03-21T03:40:54.142Z,-5.03
2018-03-21T03:41:54.034Z,-5.08
2018-03-21T03:43:47.275Z,-5.05
2018-03-21T03:44:47.206Z,-5.23
2018-03-21T03:46:40.475Z,-5.05
2018-03-21T03:47:40.375Z,-5.12
2018-03-21T03:49:33.616Z,-4.98
2018-03-21T03:50:33.545Z,-5.00
2018-03-21T03:52:26.816Z,-5.01
2018-03-21T03:53:26.715Z,-5.22
2018-03-21T03:55:19.957Z,-5.08
2018-03-21T03:56:19.884Z,-5.08
2018-03-21T03:58:13.165Z,-5.25
2018-03-21T03:59:13.062Z,-5.34
2018-03-21T04:01:06.305Z,-5.31
2018-03-21T04:02:06.234Z,-5.20
2018-03-21T04:03:59.505Z,-5.22
2018-03-21T04:04:59.404Z,-5.23
2018-03-21T04:06:52.644Z,-5.22
2018-03-21T04:07:52.578Z,-5.23
2018-03-21T04:09:45.845Z,-5.25
2018-03-21T04:10:45.742Z,-5.27
2018-03-21T04:12:38.982Z,-5.12
2018-03-21T04:13:38.910Z,-4.98
2018-03-21T04:15:32.179Z,-5.07
2018-03-21T04:16:32.078Z,-5.12
2018-03-21T04:18:25.320Z,-5.23
2018-03-21T04:19:25.248Z,-5.20
2018-03-21T04:21:18.519Z,-5.25
2018-03-21T04:22:18.417Z,-5.23
2018-03-21T04:24:11.657Z,-5.26
2018-03-21T04:25:11.586Z,-5.30
2018-03-21T04:27:04.857Z,-5.19
2018-03-21T04:28:04.756Z,-5.19
2018-03-21T04:29:57.999Z,-5.33
2018-03-21T04:30:57.929Z,-5.26
2018-03-21T04:32:51.197Z,-5.35
2018-03-21T04:33:51.098Z,-5.43
2018-03-21T04:35:44.337Z,-5.34
2018-03-21T04:36:44.264Z,-5.37
2018-03-21T04:38:37.535Z,-5.38
2018-03-21T04:39:37.433Z,-5.33
2018-03-21T04:41:30.677Z,-5.41
2018-03-21T04:42:30.606Z,-5.47
2018-03-21T04:44:23.871Z,-5.40
2018-03-21T04:45:23.770Z,-5.26
2018-03-21T04:47:17.011Z,-4.95
2018-03-21T04:48:16.939Z,-4.94
2018-03-21T04:50:10.213Z,-4.91
2018-03-21T04:51:10.108Z,-5.04
2018-03-21T04:53:03.348Z,-5.08
2018-03-21T04:54:03.278Z,-5.22
2018-03-21T04:55:56.546Z,-5.05
2018-03-21T04:56:56.445Z,-5.07
2018-03-21T04:58:49.686Z,-5.16
2018-03-21T04:59:49.614Z,-5.17
2018-03-21T05:01:42.883Z,-5.05
2018-03-21T05:02:42.782Z,-5.17
2018-03-21T05:04:36.022Z,-5.20
2018-03-21T05:05:35.950Z,-5.37
2018-03-21T05:07:29.222Z,-5.49
2018-03-21T05:08:29.120Z,-5.58
2018-03-21T05:10:22.359Z,-5.76
2018-03-21T05:11:22.290Z,-5.82
2018-03-21T05:13:15.564Z,-5.92
2018-03-21T05:14:15.460Z,-5.77
2018-03-21T05:16:08.700Z,-5.95
2018-03-21T05:17:08.628Z,-6.06
2018-03-21T05:19:01.932Z,-5.94
2018-03-21T05:20:01.795Z,-5.91
2018-03-21T05:21:55.040Z,-5.84
2018-03-21T05:22:54.964Z,-5.73
2018-03-21T05:24:48.239Z,-5.58
2018-03-21T05:25:48.132Z,-5.58
2018-03-21T05:27:41.374Z,-5.56
2018-03-21T05:28:41.301Z,-5.63
2018-03-21T05:30:34.574Z,-5.79
2018-03-21T05:31:34.471Z,-5.83
2018-03-21T05:33:27.711Z,-5.84
2018-03-21T05:34:27.641Z,-5.84
2018-03-21T05:36:20.906Z,-5.73
2018-03-21T05:37:20.805Z,-5.80
2018-03-21T05:39:14.044Z,-5.72
2018-03-21T05:40:13.970Z,-5.58
2018-03-21T05:42:07.250Z,-5.54
2018-03-21T05:43:07.141Z,-5.54
2018-03-21T05:45:00.383Z,-5.49
2018-03-21T05:46:00.310Z,-5.26
2018-03-21T05:47:53.632Z,-4.95
2018-03-21T05:48:53.480Z,-5.05
2018-03-21T05:50:46.723Z,-4.91
2018-03-21T05:51:46.647Z,-4.93
2018-03-21T05:53:39.919Z,-4.93
2018-03-21T05:54:39.822Z,-5.05
2018-03-21T05:56:33.056Z,-5.23
2018-03-21T05:57:32.984Z,-5.23
2018-03-21T05:59:26.257Z,-5.27
2018-03-21T06:00:26.163Z,-5.25
2018-03-21T06:02:18.902Z,-5.26
2018-03-21T06:03:18.829Z,-5.30
2018-03-21T06:05:12.104Z,-5.34
2018-03-21T06:06:12.000Z,-5.33
2018-03-21T06:08:05.242Z,-5.04
2018-03-21T06:09:05.169Z,-4.95
2018-03-21T06:10:58.440Z,-4.93
2018-03-21T06:11:58.339Z,-4.94
2018-03-21T06:13:51.580Z,-4.73
2018-03-21T06:14:51.506Z,-4.79
2018-03-21T06:16:44.282Z,-4.58
2018-03-21T06:17:44.179Z,-4.51
2018-03-21T06:19:37.422Z,-4.28
2018-03-21T06:20:37.350Z,-4.22
2018-03-21T06:22:30.625Z,-4.29
2018-03-21T06:23:30.520Z,-4.25
2018-03-21T06:25:23.761Z,-4.29
2018-03-21T06:26:23.690Z,-4.26
2018-03-21T06:28:16.966Z,-4.15
2018-03-21T06:29:16.865Z,-4.14
2018-03-21T06:31:10.108Z,-4.04
2018-03-21T06:32:10.032Z,-4.02
2018-03-21T06:34:03.308Z,-3.90
2018-03-21T06:35:03.202Z,-3.90
2018-03-21T06:36:56.444Z,-3.56
2018-03-21T06:37:56.379Z,-3.56
2018-03-21T06:39:49.652Z,-3.22
2018-03-21T06:40:49.548Z,-2.35
2018-03-21T06:42:42.789Z,0.36
2018-03-21T06:43:42.717Z,1.44
2018-03-21T06:45:35.993Z,3.20
2018-03-21T06:46:35.890Z,3.97
2018-03-21T06:48:29.135Z,5.32
2018-03-21T06:49:29.066Z,5.86
2018-03-21T06:51:22.345Z,6.29
2018-03-21T06:52:22.245Z,6.25
2018-03-21T06:54:15.492Z,6.51
2018-03-21T06:55:15.426Z,6.81
2018-03-21T06:57:08.707Z,6.97
2018-03-21T06:58:08.608Z,6.68
2018-03-21T07:00:01.859Z,6.94
2018-03-21T07:01:01.795Z,7.27
2018-03-21T07:02:55.079Z,7.13
2018-03-21T07:03:54.982Z,7.07
2018-03-21T07:05:48.237Z,6.97
2018-03-21T07:06:48.173Z,7.09
2018-03-21T07:08:41.460Z,7.71
2018-03-21T07:09:41.408Z,7.93
2018-03-21T07:11:34.619Z,7.94
2018-03-21T07:12:34.557Z,7.99
2018-03-21T07:14:27.847Z,7.93
2018-03-21T07:15:27.753Z,8.03
2018-03-21T07:17:21.012Z,9.12
2018-03-21T07:18:20.950Z,9.96
2018-03-21T07:20:14.257Z,10.99
2018-03-21T07:21:14.147Z,11.41
2018-03-21T07:23:07.433Z,11.62
2018-03-21T07:24:07.348Z,11.94
2018-03-21T07:26:00.649Z,11.61
2018-03-21T07:27:00.550Z,11.83
2018-03-21T07:28:53.815Z,12.45
2018-03-21T07:29:53.760Z,12.92
2018-03-21T07:31:47.060Z,13.14
2018-03-21T07:32:46.969Z,13.12
2018-03-21T07:34:40.236Z,13.20
2018-03-21T07:35:40.178Z,13.17
2018-03-21T07:37:33.480Z,13.24
2018-03-21T07:38:33.386Z,13.62
2018-03-21T07:40:26.656Z,13.77
2018-03-21T07:41:26.607Z,13.69
2018-03-21T07:43:19.898Z,13.54
2018-03-21T07:44:19.808Z,12.81
2018-03-21T07:46:13.078Z,10.47
2018-03-21T07:47:13.020Z,10.00
2018-03-21T07:49:06.318Z,11.10
2018-03-21T07:50:06.232Z,11.64
2018-03-21T07:51:59.672Z,12.11
2018-03-21T07:52:59.442Z,12.42
2018-03-21T07:54:52.742Z,12.99
2018-03-21T07:55:52.654Z,12.81
2018-03-21T07:57:45.924Z,13.59
2018-03-21T07:58:45.867Z,13.99
2018-03-21T08:00:39.170Z,12.31
2018-03-21T08:01:39.088Z,9.68
2018-03-21T08:03:31.856Z,9.01
2018-03-21T08:04:31.798Z,8.50
2018-03-21T08:06:25.109Z,10.09
2018-03-21T08:07:25.015Z,10.24
2018-03-21T08:09:18.284Z,7.99
2018-03-21T08:10:18.231Z,8.51
2018-03-21T08:12:11.031Z,9.57
2018-03-21T08:13:10.943Z,10.06
2018-03-21T08:15:04.215Z,10.53
2018-03-21T08:16:04.158Z,9.96
2018-03-21T08:17:56.977Z,10.32
2018-03-21T08:18:56.872Z,9.49
2018-03-21T08:20:49.648Z,10.15
2018-03-21T08:21:49.587Z,10.59
2018-03-21T08:23:42.887Z,11.65
2018-03-21T08:24:42.801Z,12.01
2018-03-21T08:26:36.069Z,12.21
2018-03-21T08:27:36.013Z,12.52
2018-03-21T08:29:29.311Z,12.48
2018-03-21T08:30:29.225Z,11.31
2018-03-21T08:32:22.498Z,11.89
2018-03-21T08:33:22.442Z,11.35
2018-03-21T08:35:15.759Z,9.58
2018-03-21T08:36:15.653Z,9.25
2018-03-21T08:38:08.969Z,11.13
2018-03-21T08:39:08.869Z,11.13
2018-03-21T08:41:01.673Z,11.01
2018-03-21T08:42:01.586Z,11.11
2018-03-21T08:43:54.858Z,12.23
2018-03-21T08:44:54.802Z,12.23
2018-03-21T08:46:47.606Z,12.31
2018-03-21T08:47:47.523Z,12.24
2018-03-21T08:49:40.352Z,11.94
2018-03-21T08:50:40.245Z,11.34
2018-03-21T08:52:33.072Z,10.83
2018-03-21T08:53:32.968Z,10.91
2018-03-21T08:55:26.244Z,10.14
2018-03-21T08:56:26.190Z,10.21
2018-03-21T08:58:19.007Z,10.43
2018-03-21T08:59:18.914Z,9.49
2018-03-21T09:01:11.695Z,7.94
2018-03-21T09:02:11.640Z,8.62
2018-03-21T09:04:05.445Z,8.18
2018-03-21T09:05:05.359Z,8.50
2018-03-21T09:06:58.135Z,9.39
2018-03-21T09:07:58.081Z,9.91
2018-03-21T09:09:51.382Z,8.53
2018-03-21T09:10:51.298Z,7.19
2018-03-21T09:12:44.567Z,8.55
2018-03-21T09:13:44.512Z,8.36
2018-03-21T09:15:37.320Z,8.68
2018-03-21T09:16:37.234Z,8.84
2018-03-21T09:18:30.007Z,11.14
2018-03-21T09:19:29.952Z,11.03
2018-03-21T09:21:23.253Z,11.01
2018-03-21T09:22:23.169Z,10.43
2018-03-21T09:24:15.954Z,11.47
2018-03-21T09:25:15.890Z,11.44
2018-03-21T09:27:09.202Z,11.38
2018-03-21T09:28:09.109Z,10.74
2018-03-21T09:30:02.385Z,11.70
2018-03-21T09:31:02.330Z,11.49
2018-03-21T09:32:55.158Z,9.45
2018-03-21T09:33:55.059Z,9.20
2018-03-21T09:35:48.334Z,9.67
2018-03-21T09:36:48.281Z,10.17
2018-03-21T09:38:41.092Z,11.31
2018-03-21T09:39:41.021Z,10.70
2018-03-21T09:41:34.286Z,9.96
2018-03-21T09:42:34.233Z,10.32
2018-03-21T09:44:27.541Z,10.94
2018-03-21T09:45:27.456Z,11.47
2018-03-21T09:47:20.237Z,10.56
2018-03-21T09:48:20.187Z,10.32
2018-03-21T09:50:13.013Z,10.53
2018-03-21T09:51:12.913Z,11.14
2018-03-21T09:53:06.190Z,9.76
2018-03-21T09:54:06.140Z,10.43
2018-03-21T09:55:59.445Z,9.05
2018-03-21T09:56:59.365Z,8.93
2018-03-21T09:58:52.145Z,8.50
2018-03-21T09:59:52.091Z,8.83
2018-03-21T10:01:45.416Z,8.47
2018-03-21T10:02:45.316Z,8.22
2018-03-21T10:04:38.099Z,8.83
2018-03-21T10:05:38.045Z,9.58
2018-03-21T10:07:30.855Z,9.48
2018-03-21T10:08:30.775Z,10.28
2018-03-21T10:10:23.555Z,11.93
2018-03-21T10:11:23.502Z,10.55
2018-03-21T10:13:16.320Z,10.26
2018-03-21T10:14:16.233Z,10.83
2018-03-21T10:16:10.511Z,11.16
2018-03-21T10:17:10.456Z,10.81
2018-03-21T10:19:03.792Z,12.08
2018-03-21T10:20:03.691Z,12.93
2018-03-21T10:21:56.971Z,10.74
2018-03-21T10:22:56.918Z,10.01
2018-03-21T10:24:49.751Z,10.12
2018-03-21T10:25:49.649Z,9.79
2018-03-21T10:27:42.435Z,9.91
2018-03-21T10:28:42.383Z,11.02
2018-03-21T10:30:35.693Z,11.21
2018-03-21T10:31:35.610Z,10.66
2018-03-21T10:33:28.395Z,12.11
2018-03-21T10:34:28.343Z,12.67
2018-03-21T10:36:21.161Z,13.33
2018-03-21T10:37:21.080Z,12.02
2018-03-21T10:39:14.361Z,10.18
2018-03-21T10:40:14.307Z,10.78
2018-03-21T10:42:07.123Z,11.61
2018-03-21T10:43:07.041Z,12.21
2018-03-21T10:44:59.837Z,13.69
2018-03-21T10:45:59.774Z,13.92
2018-03-21T10:47:52.598Z,13.46
2018-03-21T10:48:52.556Z,13.96
2018-03-21T10:50:45.300Z,14.53
2018-03-21T10:51:45.250Z,14.44
2018-03-21T10:53:38.071Z,12.77
2018-03-21T10:54:37.989Z,12.99
2018-03-21T10:56:31.269Z,13.76
2018-03-21T10:57:31.225Z,14.50
2018-03-21T10:59:24.055Z,14.56
2018-03-21T11:00:23.957Z,14.24
2018-03-21T11:02:16.748Z,13.74
2018-03-21T11:03:16.697Z,13.55
2018-03-21T11:05:10.018Z,13.73
2018-03-21T11:06:09.935Z,12.99
2018-03-21T11:08:03.248Z,12.24
2018-03-21T11:09:03.170Z,12.05
2018-03-21T11:10:55.987Z,10.92
2018-03-21T11:11:55.929Z,11.56
2018-03-21T11:13:48.702Z,12.63
2018-03-21T11:14:48.643Z,12.97
2018-03-21T11:16:41.467Z,12.92
2018-03-21T11:17:41.384Z,12.39
2018-03-21T11:19:34.178Z,12.06
2018-03-21T11:20:34.128Z,11.68
2018-03-21T11:22:27.440Z,11.67
2018-03-21T11:23:27.360Z,11.62
2018-03-21T11:25:20.147Z,12.42
2018-03-21T11:26:20.095Z,11.90
2018-03-21T11:28:13.408Z,11.83
2018-03-21T11:29:13.327Z,10.83
2018-03-21T11:31:06.122Z,10.60
2018-03-21T11:32:06.059Z,11.47
2018-03-21T11:33:58.891Z,10.40
2018-03-21T11:34:58.793Z,9.52
2018-03-21T11:36:52.076Z,10.68
2018-03-21T11:37:52.024Z,10.86
2018-03-21T11:39:45.336Z,10.07
2018-03-21T11:40:45.254Z,10.36
2018-03-21T11:42:38.058Z,10.83
2018-03-21T11:43:37.982Z,10.98
2018-03-21T11:45:31.290Z,11.06
2018-03-21T11:46:31.213Z,11.54
2018-03-21T11:48:23.994Z,11.74
2018-03-21T11:49:23.939Z,12.23
2018-03-21T11:51:17.253Z,13.00
2018-03-21T11:52:17.170Z,13.40
2018-03-21T11:54:09.954Z,13.62
2018-03-21T11:55:09.900Z,13.80
2018-03-21T11:57:03.228Z,13.65
2018-03-21T11:58:03.129Z,13.80
2018-03-21T11:59:55.917Z,12.84
2018-03-21T12:00:55.864Z,11.71
2018-03-21T12:02:48.743Z,10.92
2018-03-21T12:03:48.601Z,11.67
2018-03-21T12:05:41.387Z,11.17
2018-03-21T12:06:41.334Z,10.12
2018-03-21T12:08:34.673Z,9.89
2018-03-21T12:09:34.565Z,10.18
2018-03-21T12:11:27.355Z,10.25
2018-03-21T12:12:27.298Z,10.98
2018-03-21T12:14:20.122Z,11.44
2018-03-21T12:15:20.049Z,11.97
2018-03-21T12:17:12.821Z,12.23
2018-03-21T12:18:12.769Z,12.66
2018-03-21T12:20:06.097Z,13.41
2018-03-21T12:21:05.999Z,13.46
2018-03-21T12:22:59.280Z,13.07
2018-03-21T12:23:59.229Z,12.79
2018-03-21T12:25:52.047Z,12.67
2018-03-21T12:26:51.962Z,12.66
2018-03-21T12:28:44.747Z,13.02
2018-03-21T12:29:44.696Z,13.03
2018-03-21T12:31:38.010Z,12.97
2018-03-21T12:32:37.929Z,13.37
2018-03-21T12:34:30.716Z,12.79
2018-03-21T12:35:30.665Z,11.06
2018-03-21T12:37:23.500Z,10.74
2018-03-21T12:38:23.402Z,11.03
2018-03-21T12:40:16.190Z,11.06
2018-03-21T12:41:16.140Z,11.39
2018-03-21T12:43:08.956Z,11.54
2018-03-21T12:44:08.874Z,11.86
2018-03-21T12:46:01.780Z,10.77
2018-03-21T12:47:01.609Z,10.34
2018-03-21T12:48:54.921Z,9.04
2018-03-21T12:49:54.873Z,9.18
2018-03-21T12:51:47.628Z,10.37
2018-03-21T12:52:47.570Z,11.02
2018-03-21T12:54:40.382Z,11.82
2018-03-21T12:55:40.350Z,12.38
2018-03-21T12:57:33.577Z,12.16
2018-03-21T12:58:33.526Z,11.89
2018-03-21T13:00:26.357Z,12.29
2018-03-21T13:01:26.259Z,12.26
2018-03-21T13:03:19.537Z,11.87
2018-03-21T13:04:19.486Z,12.21
2018-03-21T13:06:12.794Z,12.39
2018-03-21T13:07:12.712Z,12.57
2018-03-21T13:09:05.988Z,11.39
2018-03-21T13:10:05.940Z,11.17
2018-03-21T13:11:58.769Z,11.70
2018-03-21T13:12:58.666Z,11.49
2018-03-21T13:14:51.945Z,11.86
2018-03-21T13:15:51.894Z,12.20
2018-03-21T13:17:45.202Z,12.62
2018-03-21T13:18:45.120Z,12.57
2018-03-21T13:20:37.905Z,12.46
2018-03-21T13:21:37.850Z,12.49
2018-03-21T13:23:30.662Z,12.39
2018-03-21T13:24:30.591Z,12.34
2018-03-21T13:26:23.858Z,12.63
2018-03-21T13:27:23.806Z,12.59
2018-03-21T13:29:17.115Z,12.67
2018-03-21T13:30:17.033Z,12.45
2018-03-21T13:32:09.817Z,11.96
2018-03-21T13:33:09.763Z,12.19
2018-03-21T13:35:03.074Z,12.24
2018-03-21T13:36:02.991Z,12.45
2018-03-21T13:37:56.270Z,12.46
2018-03-21T13:38:56.220Z,12.24
2018-03-21T13:40:49.053Z,10.91
2018-03-21T13:41:49.006Z,10.92
2018-03-21T13:43:41.737Z,10.60
2018-03-21T13:44:41.683Z,10.26
2018-03-21T13:46:34.497Z,10.28
2018-03-21T13:47:34.414Z,9.64
2018-03-21T13:49:27.197Z,9.42
2018-03-21T13:50:27.145Z,10.03
2018-03-21T13:52:20.469Z,10.60
2018-03-21T13:53:20.369Z,10.77
2018-03-21T13:55:13.645Z,11.17
2018-03-21T13:56:13.593Z,11.54
2018-03-21T13:58:06.899Z,11.97
2018-03-21T13:59:06.815Z,11.59
2018-03-21T14:00:59.598Z,11.29
2018-03-21T14:01:59.542Z,11.35
2018-03-21T14:03:52.853Z,10.83
2018-03-21T14:04:52.780Z,10.21
2018-03-21T14:06:46.053Z,9.88
2018-03-21T14:07:45.999Z,9.91
2018-03-21T14:09:38.817Z,9.40
2018-03-21T14:10:38.713Z,9.31
2018-03-21T14:12:31.494Z,8.97
2018-03-21T14:13:31.436Z,8.79
2018-03-21T14:15:24.746Z,8.20
2018-03-21T14:16:24.655Z,8.21
2018-03-21T14:18:17.933Z,8.00
2018-03-21T14:19:17.868Z,8.00
2018-03-21T14:21:11.176Z,7.74
2018-03-21T14:22:11.079Z,7.77
2018-03-21T14:24:04.350Z,7.67
2018-03-21T14:25:04.289Z,7.67
2018-03-21T14:26:57.602Z,7.12
2018-03-21T14:27:57.525Z,7.08
2018-03-21T14:29:50.760Z,7.23
2018-03-21T14:30:50.702Z,7.16
2018-03-21T14:32:43.992Z,7.23
2018-03-21T14:33:43.901Z,7.34
2018-03-21T14:35:37.164Z,7.24
2018-03-21T14:36:37.103Z,7.24
2018-03-21T14:38:30.413Z,7.22
2018-03-21T14:39:30.302Z,7.19
2018-03-21T14:41:23.563Z,6.77
2018-03-21T14:42:23.500Z,6.83
2018-03-21T14:44:16.793Z,6.79
2018-03-21T14:45:16.705Z,6.76
2018-03-21T14:47:09.963Z,6.79
2018-03-21T14:48:09.898Z,6.77
2018-03-21T14:50:03.186Z,6.95
2018-03-21T14:51:03.093Z,7.07
2018-03-21T14:52:56.352Z,6.94
2018-03-21T14:53:56.292Z,6.89
2018-03-21T14:55:49.595Z,6.77
2018-03-21T14:56:49.484Z,6.79
2018-03-21T14:58:42.740Z,6.69
2018-03-21T14:59:42.684Z,6.63
2018-03-21T15:01:35.978Z,6.72
2018-03-21T15:02:35.872Z,6.79
2018-03-21T15:04:29.126Z,6.71
2018-03-21T15:05:29.065Z,6.72
2018-03-21T15:07:22.350Z,6.63
2018-03-21T15:08:22.257Z,6.66
2018-03-21T15:10:15.517Z,6.81
2018-03-21T15:11:15.450Z,6.71
2018-03-21T15:13:08.750Z,6.61
2018-03-21T15:14:08.652Z,6.47
2018-03-21T15:16:01.908Z,6.43
2018-03-21T15:17:01.888Z,6.44
2018-03-21T15:18:55.135Z,6.48
2018-03-21T15:19:55.041Z,6.35
2018-03-21T15:21:48.297Z,6.36
2018-03-21T15:22:48.235Z,6.18
2018-03-21T15:24:41.516Z,5.98
2018-03-21T15:25:41.423Z,5.81
2018-03-21T15:27:34.679Z,6.01
2018-03-21T15:28:34.614Z,6.10
2018-03-21T15:30:27.908Z,6.04
2018-03-21T15:31:27.807Z,5.96
2018-03-21T15:33:21.060Z,5.93
2018-03-21T15:34:20.999Z,5.85
2018-03-21T15:36:14.284Z,5.81
2018-03-21T15:37:14.190Z,5.81
2018-03-21T15:39:07.441Z,5.78
2018-03-21T15:40:07.380Z,5.71
2018-03-21T15:42:00.677Z,5.71
2018-03-21T15:43:00.564Z,5.68
2018-03-21T15:44:53.820Z,5.70
2018-03-21T15:45:53.758Z,5.66
2018-03-21T15:47:47.042Z,5.60
2018-03-21T15:48:46.946Z,5.55
2018-03-21T15:50:40.201Z,5.66
2018-03-21T15:51:40.138Z,5.77
2018-03-21T15:53:33.430Z,5.68
2018-03-21T15:54:33.327Z,5.85
2018-03-21T15:56:26.585Z,5.89
2018-03-21T15:57:26.534Z,5.78
2018-03-21T15:59:19.807Z,5.70
2018-03-21T16:00:19.706Z,5.57
2018-03-21T16:02:12.961Z,5.57
2018-03-21T16:03:12.893Z,5.70
2018-03-21T16:05:06.181Z,5.66
2018-03-21T16:06:06.082Z,5.67
2018-03-21T16:07:59.335Z,5.45
2018-03-21T16:08:59.268Z,5.28
2018-03-21T16:10:52.603Z,5.40
2018-03-21T16:11:52.456Z,5.35
2018-03-21T16:13:45.710Z,5.25
2018-03-21T16:14:45.645Z,5.23
2018-03-21T16:16:38.928Z,5.25
2018-03-21T16:17:38.831Z,5.23
2018-03-21T16:19:32.083Z,5.19
2018-03-21T16:20:32.021Z,5.12
2018-03-21T16:22:25.320Z,4.96
2018-03-21T16:23:25.208Z,4.89
2018-03-21T16:25:18.509Z,4.89
2018-03-21T16:26:18.393Z,4.91
2018-03-21T16:28:11.677Z,4.83
2018-03-21T16:29:11.585Z,4.83
2018-03-21T16:31:04.835Z,4.70
2018-03-21T16:32:04.768Z,4.69
2018-03-21T16:33:58.051Z,4.58
2018-03-21T16:34:57.956Z,4.55
2018-03-21T16:36:51.208Z,4.46
2018-03-21T16:37:51.140Z,4.40
2018-03-21T16:39:44.419Z,4.33
2018-03-21T16:40:44.326Z,4.28
2018-03-21T16:42:37.576Z,4.19
2018-03-21T16:43:37.512Z,4.04
2018-03-21T16:45:30.793Z,4.06
2018-03-21T16:46:30.698Z,4.10
2018-03-21T16:48:23.948Z,4.03
2018-03-21T16:49:23.911Z,4.08
2018-03-21T16:51:17.168Z,4.00
2018-03-21T16:52:17.068Z,3.90
2018-03-21T16:54:10.353Z,3.76
2018-03-21T16:55:10.256Z,3.71
2018-03-21T16:57:03.552Z,3.42
2018-03-21T16:58:03.440Z,3.46
2018-03-21T16:59:56.690Z,3.39
2018-03-21T17:00:56.626Z,3.40
2018-03-21T17:02:49.909Z,3.25
2018-03-21T17:03:49.810Z,3.21
2018-03-21T17:05:43.063Z,3.18
2018-03-21T17:06:42.997Z,3.05
2018-03-21T17:08:36.281Z,3.09
2018-03-21T17:09:36.182Z,2.98
2018-03-21T17:11:29.437Z,3.03
2018-03-21T17:12:29.369Z,3.10
2018-03-21T17:14:22.659Z,2.94
2018-03-21T17:15:22.562Z,2.82
2018-03-21T17:17:15.818Z,2.58
2018-03-21T17:18:15.749Z,2.45
2018-03-21T17:20:09.028Z,2.48
2018-03-21T17:21:08.932Z,2.51
2018-03-21T17:23:02.182Z,2.37
2018-03-21T17:24:02.122Z,2.28
2018-03-21T17:25:55.396Z,2.41
2018-03-21T17:26:55.310Z,2.48
2018-03-21T17:28:48.547Z,2.30
2018-03-21T17:29:48.479Z,2.31
2018-03-21T17:31:41.760Z,2.10
2018-03-21T17:32:41.663Z,1.99
2018-03-21T17:34:34.914Z,1.90
2018-03-21T17:35:34.846Z,1.82
2018-03-21T17:37:28.127Z,1.87
2018-03-21T17:38:28.031Z,1.73
2018-03-21T17:40:21.280Z,1.51
2018-03-21T17:41:21.211Z,1.40
2018-03-21T17:43:14.492Z,1.50
2018-03-21T17:44:14.394Z,1.47
2018-03-21T17:46:07.643Z,1.51
2018-03-21T17:47:07.575Z,1.39
2018-03-21T17:49:00.870Z,1.06
2018-03-21T17:50:01.448Z,0.85
2018-03-21T17:51:54.005Z,0.82
2018-03-21T17:52:53.940Z,0.79
2018-03-21T17:54:47.222Z,0.88
2018-03-21T17:55:47.122Z,0.85
2018-03-21T17:57:40.374Z,0.98
2018-03-21T17:58:40.313Z,0.85
2018-03-21T18:00:33.578Z,0.65
2018-03-21T18:01:33.499Z,0.60
2018-03-21T18:03:26.744Z,0.76
2018-03-21T18:04:26.660Z,0.90
2018-03-21T18:06:19.979Z,0.88
2018-03-21T18:07:19.851Z,0.96
2018-03-21T18:09:13.088Z,0.85
2018-03-21T18:10:13.113Z,0.57
2018-03-21T18:12:07.406Z,0.36
2018-03-21T18:13:07.200Z,0.25
2018-03-21T18:15:00.449Z,-0.12
2018-03-21T18:16:00.389Z,-0.41
2018-03-21T18:17:53.695Z,-0.51
2018-03-21T18:18:53.589Z,-0.65
2018-03-21T18:20:46.814Z,-0.73
2018-03-21T18:21:46.744Z,-0.66
2018-03-21T18:23:40.081Z,-1.02
2018-03-21T18:24:39.926Z,-1.03
2018-03-21T18:26:33.173Z,-0.73
2018-03-21T18:27:33.108Z,-0.66
2018-03-21T18:29:26.380Z,-0.77
2018-03-21T18:30:26.282Z,-0.95
2018-03-21T18:32:19.527Z,-1.18
2018-03-21T18:33:19.458Z,-1.21
2018-03-21T18:35:12.874Z,-1.21
2018-03-21T18:36:12.635Z,-1.15
2018-03-21T18:38:05.884Z,-1.30
2018-03-21T18:39:05.815Z,-1.38
2018-03-21T18:40:59.091Z,-1.43
2018-03-21T18:41:58.993Z,-1.54
2018-03-21T18:43:52.254Z,-1.67
2018-03-21T18:44:52.172Z,-1.85
2018-03-21T18:46:45.446Z,-1.92